• Join FlightAware (Why Join?)
  • Login
  • US Flag 
07:44PM EDT


 

Airport Tracker/Info


-or-


 

Live Flight TrackerFlight Track Log ✈ JBU226 ✈ 26-Feb-2014 ✈ KTPA - KJFK

Flight Track Log - Related Links

Times and Time Zones

All times are in EST time to prevent confusion due to time zone crossing. See the JBU226 flight status page for this flight to view local times or setup timezone preferences in your user account.

Time Position Orientation Groundspeed Altitude Reporting Facility
EST Latitude Longitude Course Direction KTS MPH feet Rate Location/Type
06:45AM 27.9667 -82.5500 354° North 174 200 1,000  Level Tampa TRACON
06:45AM 27.9333 -82.5500 180° South 169 194 1,900 1,620 Climbing Tampa TRACON
06:46AM 27.8833 -82.5667 196° South 239 275 3,300 2,400 Climbing Tampa TRACON
06:48AM 28.4536 -82.5737 355° North  Level FlightAware Approximate
06:48AM 27.9494 -82.6553 310° West 159 183 9,700  Level Jacksonville Center
06:49AM 28.5765 -82.5833 North  Level FlightAware Approximate
06:49AM 28.0453 -82.6364 10° North 238 274 11,100  Level Jacksonville Center
06:50AM 28.6996 -82.5874 354° North  Level FlightAware Approximate
06:50AM 28.1517 -82.6172 North 314 361 14,100  Level Jacksonville Center
06:51AM 28.2581 -82.6028 North 357 411 16,300 2,340 Climbing Jacksonville Center
06:52AM 28.3686 -82.5836 North 383 441 18,700 2,100 Climbing Jacksonville Center
06:53AM 28.4772 -82.5833 360° North 390 449 20,500 1,620 Climbing Jacksonville Center
06:54AM 28.5919 -82.5875 358° North 395 455 22,000 1,680 Climbing Jacksonville Center
06:55AM 28.7025 -82.5944 357° North 405 466 23,900 1,680 Climbing Jacksonville Center
06:56AM 28.8133 -82.6083 354° North 405 466 25,400 1,200 Climbing Jacksonville Center
06:57AM 28.9281 -82.6222 354° North 405 466 26,300 1,200 Climbing Jacksonville Center
06:58AM 29.0450 -82.6383 353° North 410 472 27,900 1,260 Climbing Jacksonville Center
06:59AM 29.1639 -82.6572 352° North 416 479 28,800 1,260 Climbing Jacksonville Center
07:00AM 29.2831 -82.6711 354° North 422 486 30,400 1,500 Climbing Jacksonville Center
07:01AM 29.3978 -82.6900 352° North 422 486 31,900 840 Climbing Jacksonville Center
07:02AM 29.5272 -82.6944 358° North 415 478 32,100 840 Climbing Jacksonville Center
07:03AM 29.6400 -82.6919 North 401 461 33,600 1,380 Climbing Jacksonville Center
07:04AM 29.7506 -82.6942 359° North 394 453 34,900 600 Climbing Jacksonville Center
07:05AM 29.8592 -82.6650 13° North 391 450 34,900  Level Jacksonville Center
07:06AM 29.9594 -82.6311 16° North 402 463 34,900  Level Jacksonville Center
07:07AM 30.0886 -82.5900 15° North 413 475 34,900  Level Jacksonville Center
07:08AM 30.2014 -82.5536 16° North 413 475 34,900  Level Jacksonville Center
07:09AM 30.3139 -82.5172 16° North 413 475 34,900  Level Jacksonville Center
07:10AM 30.4267 -82.4661 21° North 418 481 34,900  Level Jacksonville Center
07:11AM 30.5306 -82.3692 39° Northeast 448 516 35,000  Climbing Jacksonville Center
07:12AM 30.6222 -82.2819 39° Northeast 454 522 34,900  Descending Jacksonville Center
07:13AM 30.7258 -82.1822 40° Northeast 469 540 35,000  Climbing Jacksonville Center
07:14AM 30.8319 -82.0844 38° Northeast 474 545 35,000 -60 Level Jacksonville Center
07:15AM 30.9356 -81.9867 39° Northeast 474 545 34,900 -60 Descending Jacksonville Center
07:16AM 31.0372 -81.8889 39° Northeast 474 545 34,900  Level Jacksonville Center
07:17AM 31.1428 -81.7931 38° Northeast 474 545 35,000  Climbing Jacksonville Center
07:18AM 31.2483 -81.6897 40° Northeast 474 545 35,000  Level Jacksonville Center
07:19AM 31.3664 -81.5786 39° Northeast 481 554 35,000  Level Jacksonville Center
07:20AM 31.4675 -81.4797 40° Northeast 481 554 35,000  Level Jacksonville Center
07:21AM 31.5625 -81.3858 40° Northeast 487 560 35,000  Level Jacksonville Center
07:22AM 31.6822 -81.2739 38° Northeast 492 566 35,000  Level Jacksonville Center
07:23AM 31.7769 -81.1794 40° Northeast 492 566 35,000  Level Jacksonville Center
07:24AM 31.8967 -81.0669 39° Northeast 497 572 35,000 120 Level Jacksonville Center
07:25AM 32.0014 -80.9622 40° Northeast 497 572 35,300 600 Climbing Jacksonville Center
07:26AM 32.0961 -80.8719 39° Northeast 492 566 36,200 780 Climbing Jacksonville Center
07:27AM 32.2111 -80.7589 40° Northeast 487 560 37,000 300 Climbing Jacksonville Center
07:28AM 32.3036 -80.6658 40° Northeast 487 560 36,900  Descending Jacksonville Center
07:29AM 32.4061 -80.5647 40° Northeast 487 560 37,000  Climbing Jacksonville Center
07:30AM 32.5106 -80.4636 39° Northeast 482 555 36,900  Descending Jacksonville Center
07:31AM 32.6131 -80.3622 40° Northeast 482 555 37,000  Climbing Jacksonville Center
07:32AM 32.7153 -80.2581 41° Northeast 482 555 36,900 -60 Descending Jacksonville Center
07:33AM 32.8194 -80.1536 40° Northeast 482 555 36,900  Level Jacksonville Center
07:34AM 32.9236 -80.0492 40° Northeast 482 555 36,900  Level Jacksonville Center
07:35AM 33.0381 -79.9339 40° Northeast 488 562 37,000  Climbing Jacksonville Center
07:36AM 33.1461 -79.8286 39° Northeast 495 570 37,000  Level Jacksonville Center
07:37AM 33.2497 -79.7208 41° Northeast 495 570 37,000  Level Jacksonville Center
07:38AM 33.3578 -79.6125 40° Northeast 495 570 37,000 -60 Level Jacksonville Center
07:39AM 33.4633 -79.5067 40° Northeast 495 570 36,900  Descending Jacksonville Center
07:42AM 33.7025 -79.2608 41° Northeast 487 560 37,000  Climbing Washington Center
07:43AM 33.8081 -79.1506 41° Northeast 492 566 37,000 -60 Level Washington Center
07:44AM 33.9156 -79.0425 40° Northeast 492 566 36,900 -60 Descending Washington Center
07:45AM 34.0208 -78.9342 40° Northeast 492 566 36,900  Level Washington Center
07:46AM 34.1281 -78.8306 39° Northeast 492 566 37,000  Climbing Washington Center
07:47AM 34.2353 -78.7219 40° Northeast 492 566 37,000 -60 Level Washington Center
07:48AM 34.3422 -78.6153 39° Northeast 492 566 36,900 -60 Descending Washington Center
07:49AM 34.4472 -78.5108 39° Northeast 487 560 36,900  Level Washington Center
07:50AM 34.5433 -78.4108 41° Northeast 495 570 37,000  Climbing Washington Center
07:51AM 34.6608 -78.2939 39° Northeast 490 564 36,900 -60 Descending Washington Center
07:52AM 34.7656 -78.1886 40° Northeast 490 564 36,900  Level Washington Center
07:53AM 34.8572 -78.0878 42° Northeast 490 564 37,000  Climbing Washington Center
07:54AM 34.9639 -77.9794 40° Northeast 491 565 37,000  Level Washington Center
07:55AM 35.0683 -77.8683 41° Northeast 491 565 37,000  Level Washington Center
07:56AM 35.1806 -77.7750 34° Northeast 491 565 37,000  Level Washington Center
07:57AM 35.2947 -77.6864 32° Northeast 484 557 37,000  Level Washington Center
07:58AM 35.4111 -77.6003 31° Northeast 479 551 37,000  Level Washington Center
07:59AM 35.5272 -77.5086 33° Northeast 484 557 37,000  Level Washington Center
08:00AM 35.6392 -77.4194 33° Northeast 484 557 37,000  Level Washington Center
08:01AM 35.7553 -77.3300 32° Northeast 489 563 37,000  Level Washington Center
08:02AM 35.8694 -77.2403 32° Northeast 489 563 37,000 -60 Level Washington Center
08:03AM 35.9833 -77.1475 33° Northeast 490 564 36,900 -60 Descending Washington Center
08:04AM 36.0992 -77.0572 32° Northeast 490 564 36,900  Level Washington Center
08:05AM 36.2150 -76.9692 32° Northeast 490 564 36,900  Level Washington Center
08:06AM 36.3306 -76.8758 33° Northeast 490 564 36,900  Level Washington Center
08:07AM 36.4464 -76.7850 32° Northeast 490 564 37,000  Climbing Washington Center
08:08AM 36.5619 -76.6936 32° Northeast 490 564 36,900 -60 Descending Washington Center
08:09AM 36.6881 -76.5917 33° Northeast 490 564 36,900  Level Washington Center
08:10AM 36.8056 -76.4947 33° Northeast 490 564 37,000  Climbing Washington Center
08:11AM 36.9189 -76.3997 34° Northeast 490 564 37,000  Level Washington Center
08:12AM 37.0344 -76.3047 33° Northeast 490 564 37,000  Level Washington Center
08:13AM 37.1517 -76.2119 32° Northeast 490 564 37,000 -60 Level Washington Center
08:14AM 37.2731 -76.1192 31° Northeast 495 570 36,900  Descending Washington Center
08:15AM 37.3903 -76.0231 33° Northeast 501 577 37,000  Climbing Washington Center
08:16AM 37.5075 -75.9244 34° Northeast 501 577 37,000  Level Washington Center
08:17AM 37.6244 -75.8303 33° Northeast 501 577 37,000 -60 Level Washington Center
08:18AM 37.7414 -75.7308 34° Northeast 501 577 36,900 -60 Descending Washington Center
08:19AM 37.8625 -75.6311 33° Northeast 506 582 36,900  Level Washington Center
08:20AM 37.9792 -75.5339 33° Northeast 506 582 36,900  Level Washington Center
08:21AM 38.0981 -75.4361 33° Northeast 506 582 36,900  Level Washington Center
08:22AM 38.2231 -75.3617 25° Northeast 494 568 36,900  Level Washington Center
08:23AM 38.3500 -75.2792 27° Northeast 489 563 37,000 -840 Climbing Washington Center
08:24AM 38.4728 -75.2019 26° Northeast 489 563 35,200 -1,080 Descending Washington Center
08:25AM 38.5997 -75.1189 27° Northeast 489 563 34,900 -180 Descending Washington Center
08:26AM 38.7286 -75.0408 25° Northeast 494 568 34,900 -120 Level Washington Center
08:27AM 38.8553 -74.9572 27° Northeast 499 574 34,700 -1,260 Descending Washington Center
08:28AM 38.9819 -74.8733 27° Northeast 504 580 32,400 -2,520 Descending Washington Center
08:29AM 39.0981 -74.7892 29° Northeast 509 586 29,700 -2,700 Descending Washington Center
08:30AM 39.2161 -74.6672 39° Northeast 526 605 27,000 -2,880 Descending Washington Center
08:32AM 39.4917 -74.3728 39° Northeast 511 588 20,300 -2,700 Descending New York Center
08:33AM 39.5886 -74.2647 41° Northeast 511 588 18,000 -2,040 Descending New York Center
08:34AM 39.6878 -74.1564 40° Northeast 487 560 16,300 -1,860 Descending New York Center
08:35AM 39.7911 -74.0425 40° Northeast 452 520 14,300 -1,920 Descending New York Center
08:36AM 39.8872 -73.9550 35° Northeast 428 493 12,500 -1,680 Descending New York Center
08:37AM 39.9828 -73.8889 28° Northeast 399 459 11,000 -780 Descending New York Center
08:38AM 40.0550 -73.8353 30° Northeast 350 403 11,000 -780 Level New York Center
08:39AM 40.1358 -73.7736 30° Northeast 311 358 9,500 -1,260 Descending New York Center
08:40AM 40.2100 -73.7225 28° Northeast 300 345 8,500 -1,320 Descending New York Center
08:41AM 40.2778 -73.6792 26° Northeast 281 323 6,900 -1,500 Descending New York Center
08:42AM 40.3478 -73.6358 25° Northeast 276 318 5,500 -1,500 Descending New York Center
08:43AM 40.4172 -73.6006 21° North 271 312 4,000 -780 Descending New York Center
08:44AM 40.4850 -73.5625 23° Northeast 266 306 4,000  Level New York Center
08:45AM 40.5525 -73.5269 22° Northeast 266 306 4,000 -480 Level New York Center
08:46AM 40.6172 -73.5186 North 249 287 3,100 -1,020 Descending New York Center
08:47AM 40.6917 -73.5381 349° North 249 287 2,000 -600 Descending New York Center
08:48AM 40.7428 -73.5867 324° Northwest 244 281 2,000  Level New York Center
08:49AM 40.7636 -73.6644 289° West 217 250 2,000 -60 Level New York Center
08:50AM 40.7233 -73.6983 213° Southwest 172 198 1,900 -540 Descending New York Center
08:51AM 40.6833 -73.7333 214° Southwest 130 150 900 -840 Descending New York TRACON
08:52AM 40.6500 -73.7500 201° Southwest 126 145 200 -720 Descending New York TRACON
08:54AM 40.6333 -73.7667 227° Southwest  Level FlightAware Approximate
09:01AM 40.6398 -73.7789 227° Southwest  Level Estimated